Relatórios de METAR próximas

 

LPAR - Alverca, Portugal
Distance from station: SO 47km
Actualizado: 21/06/2018 17:00
NÃO Actual
Few Clouds
Few Clouds
 Vento de varies
Vento: varies 0 km/h
Temperatura: 29°C
Índice de Calor: 29°C
Ponto de Orvalho: 16°C
Humidade: 45%
Barómetro: 1016 hPa
Nuvens: Few Clouds
Visibilidade: 10 km
Cloud details: Few Clouds 1067 m
Few Clouds 1219 m
2018/06/21 16:00 LPAR 211600Z /////KT 9999 FEW035 FEW040CB 29/16 Q1016
LPPT - Lisbon/Portela, Portugal
Distance from station: SO 61km
Actualizado: 24/06/2018 20:30
Few Clouds
Few Clouds
 Vento de ONO
Vento: ONO 17 km/h
Temperatura: 19°C
Ponto de Orvalho: 15°C
Humidade: 78%
Barómetro: 1015 hPa
Nuvens: Few Clouds
Visibilidade: 10 km
Cloud details: Few Clouds 457 m
2018/06/24 19:30 LPPT 241930Z 30009KT 280V340 9999 FEW015 19/15 Q1015
 
LPMT - Montijo (por-Afb, Portugal
Distance from station: SO 62km
Actualizado: 24/06/2018 20:00
Céu Limpo
Céu Limpo
 Vento de NNO
Vento: NNO 13 km/h
Temperatura: 23°C
Ponto de Orvalho: 16°C
Humidade: 65%
Barómetro: 1014 hPa
Resumo: Céu Limpo
Visibilidade: greater than 10 km
2018/06/24 19:00 LPMT 241900Z 33007KT CAVOK 23/16 Q1014
LPST - Sintra/Granja (a, Portugal
Distance from station: OSO 72km
Actualizado: 23/06/2018 19:00
NÃO Actual
Muito Nublado
Muito Nublado
 Vento de NO
Vento: NO 15 km/h
Temperatura: 19°C
Ponto de Orvalho: 17°C
Humidade: 88%
Barómetro: 1015 hPa
Nuvens: Muito Nublado
Visibilidade: 10 km
Cloud details: Muito Nublado 274 m
2018/06/23 18:00 LPST 231800Z 31008KT 280V340 9999 BKN009 19/17 Q1015
 
LPMR - Monte Real(Por-A, Portugal
Distance from station: NNO 80km
Actualizado: 24/06/2018 20:00
Muito Nublado
Muito Nublado
 Vento de NNO
Vento: NNO 9 km/h
Temperatura: 19°C
Ponto de Orvalho: 16°C
Humidade: 83%
Barómetro: 1016 hPa
Nuvens: Muito Nublado
Visibilidade: 10 km
Cloud details: Muito Nublado 366 m
2018/06/24 19:00 LPMR 241900Z 33005KT 290V350 9999 BKN012 19/16 Q1016
LPBJ - Beja (por/Ger-Af, Portugal
Distance from station: SSE 139km
Actualizado: 24/06/2018 20:00
Céu Limpo
Céu Limpo
 Vento de varies
Vento: varies 0 km/h
Temperatura: 24°C
Ponto de Orvalho: 16°C
Humidade: 61%
Barómetro: 1014 hPa
Resumo: Céu Limpo
Visibilidade: greater than 10 km
2018/06/24 19:00 LPBJ 241900Z /////KT CAVOK 24/16 Q1014